createdAt,value
2023-05-22T00:01:26.678Z,86.37
2023-05-22T00:03:54.696Z,84.66
2023-05-22T00:06:22.425Z,84.88
2023-05-22T00:08:49.323Z,84.79
2023-05-22T00:11:16.758Z,84.87
2023-05-22T00:13:43.651Z,86.08
2023-05-22T00:16:10.550Z,86.67
2023-05-22T00:18:37.461Z,87.32
2023-05-22T00:21:04.778Z,87.94
2023-05-22T00:23:31.704Z,87.39
2023-05-22T00:25:58.531Z,85.97
2023-05-22T00:28:25.433Z,85.82
2023-05-22T00:30:52.486Z,86.36
2023-05-22T00:33:19.528Z,84.84
2023-05-22T00:35:48.696Z,86.57
2023-05-22T00:38:38.012Z,87.15
2023-05-22T00:41:06.628Z,86.46
2023-05-22T00:43:34.362Z,88.57
2023-05-22T00:46:01.311Z,88.88
2023-05-22T00:48:28.500Z,90.08
2023-05-22T00:50:57.345Z,89.69
2023-05-22T00:53:25.501Z,88.05
2023-05-22T00:55:54.132Z,89.88
2023-05-22T00:58:21.965Z,92.78
2023-05-22T01:00:48.968Z,95.31
2023-05-22T01:03:16.776Z,92.45
2023-05-22T01:05:43.864Z,94.81
2023-05-22T01:08:11.406Z,94.84
2023-05-22T01:10:40.462Z,93.83
2023-05-22T01:13:29.021Z,92.88
2023-05-22T01:16:02.042Z,92.23
2023-05-22T01:18:32.363Z,87.24
2023-05-22T01:21:30.569Z,89.66
2023-05-22T01:24:00.399Z,92.06
2023-05-22T01:27:04.821Z,94.82
2023-05-22T01:30:00.738Z,93.43
2023-05-22T01:32:29.698Z,92.27
2023-05-22T01:35:01.295Z,92.03
2023-05-22T01:37:28.857Z,95.41
2023-05-22T01:39:56.558Z,96.63
2023-05-22T01:42:23.990Z,95.16
2023-05-22T01:44:51.023Z,93.39
2023-05-22T01:47:18.328Z,93.08
2023-05-22T01:49:47.574Z,93.35
2023-05-22T01:52:53.632Z,93.08
2023-05-22T01:55:29.362Z,94.49
2023-05-22T01:58:13.681Z,93.41
2023-05-22T02:00:44.051Z,92.58
2023-05-22T02:03:19.402Z,95.43
2023-05-22T02:05:50.772Z,94.65
2023-05-22T02:08:19.001Z,95.97
2023-05-22T02:10:47.145Z,95.67
2023-05-22T02:13:14.776Z,94.70
2023-05-22T02:15:45.415Z,95.40
2023-05-22T02:18:15.352Z,99.17
2023-05-22T02:20:51.391Z,100.00
2023-05-22T02:23:18.383Z,100.00
2023-05-22T02:25:45.168Z,100.00
2023-05-22T02:28:12.216Z,100.00
2023-05-22T02:30:39.542Z,100.00
2023-05-22T02:33:06.800Z,100.00
2023-05-22T02:35:33.628Z,100.00
2023-05-22T02:38:00.717Z,100.00
2023-05-22T02:40:27.704Z,100.00
2023-05-22T02:42:55.024Z,100.00
2023-05-22T02:45:22.294Z,100.00
2023-05-22T02:47:49.188Z,100.00
2023-05-22T02:50:16.439Z,100.00
2023-05-22T02:52:45.323Z,100.00
2023-05-22T02:55:12.229Z,100.00
2023-05-22T02:57:38.978Z,100.00
2023-05-22T03:00:11.759Z,100.00
2023-05-22T03:02:39.312Z,100.00
2023-05-22T03:05:08.469Z,100.00
2023-05-22T03:07:35.551Z,100.00
2023-05-22T03:10:02.547Z,100.00
2023-05-22T03:12:29.479Z,100.00
2023-05-22T03:14:56.533Z,100.00
2023-05-22T03:17:23.325Z,100.00
2023-05-22T03:19:54.458Z,100.00
2023-05-22T03:22:21.676Z,100.00
2023-05-22T03:24:48.610Z,100.00
2023-05-22T03:27:17.474Z,100.00
2023-05-22T03:29:44.619Z,100.00
2023-05-22T03:32:11.544Z,100.00
2023-05-22T03:34:38.500Z,100.00
2023-05-22T03:37:05.524Z,100.00
2023-05-22T03:39:32.838Z,100.00
2023-05-22T03:41:59.690Z,100.00
2023-05-22T03:44:28.161Z,100.00
2023-05-22T03:46:55.102Z,100.00
2023-05-22T03:49:23.353Z,100.00
2023-05-22T03:51:50.453Z,100.00
2023-05-22T03:54:17.264Z,100.00
2023-05-22T03:56:44.375Z,100.00
2023-05-22T03:59:11.458Z,100.00
2023-05-22T04:01:39.221Z,100.00
2023-05-22T04:04:06.293Z,100.00
2023-05-22T04:06:33.351Z,100.00
2023-05-22T04:09:00.797Z,100.00
2023-05-22T04:11:30.496Z,100.00
2023-05-22T04:13:57.585Z,100.00
2023-05-22T04:16:24.443Z,100.00
2023-05-22T04:18:51.298Z,100.00
2023-05-22T04:21:19.258Z,100.00
2023-05-22T04:23:47.752Z,100.00
2023-05-22T04:26:14.535Z,100.00
2023-05-22T04:28:46.346Z,100.00
2023-05-22T04:31:16.242Z,100.00
2023-05-22T04:33:44.717Z,100.00
2023-05-22T04:36:12.684Z,100.00
2023-05-22T04:38:41.450Z,100.00
2023-05-22T04:41:11.178Z,100.00
2023-05-22T04:43:38.952Z,100.00
2023-05-22T04:46:06.956Z,100.00
2023-05-22T04:48:34.152Z,96.02
2023-05-22T04:51:02.727Z,91.32
2023-05-22T04:53:30.532Z,86.80
2023-05-22T04:55:57.583Z,87.56
2023-05-22T04:58:24.555Z,85.78
2023-05-22T05:00:52.711Z,86.76
2023-05-22T05:03:21.525Z,83.46
2023-05-22T05:05:49.475Z,80.03
2023-05-22T05:08:16.553Z,78.03
2023-05-22T05:10:43.429Z,82.32
2023-05-22T05:13:10.376Z,75.91
2023-05-22T05:15:37.367Z,73.07
2023-05-22T05:18:04.188Z,73.76
2023-05-22T05:23:15.752Z,69.94
2023-05-22T05:25:42.524Z,76.25
2023-05-22T05:28:11.722Z,71.43
2023-05-22T05:30:43.281Z,71.70
2023-05-22T05:33:10.523Z,73.50
2023-05-22T05:35:37.521Z,71.62
2023-05-22T05:38:04.288Z,68.55
2023-05-22T05:40:31.034Z,64.94
2023-05-22T05:42:57.860Z,60.52
2023-05-22T05:45:24.847Z,61.13
2023-05-22T05:47:52.177Z,62.55
2023-05-22T05:50:24.893Z,67.76
2023-05-22T05:52:51.784Z,66.24
2023-05-22T05:55:19.000Z,63.46
2023-05-22T05:57:46.004Z,61.28
2023-05-22T06:00:13.716Z,62.44
2023-05-22T06:02:40.621Z,63.01
2023-05-22T06:05:10.101Z,61.52
2023-05-22T06:07:40.107Z,66.49
2023-05-22T06:10:16.336Z,66.38
2023-05-22T06:12:43.276Z,68.70
2023-05-22T06:15:10.204Z,65.79
2023-05-22T06:17:39.491Z,64.15
2023-05-22T06:20:07.435Z,64.55
2023-05-22T06:22:34.362Z,59.29
2023-05-22T06:25:01.406Z,61.18
2023-05-22T06:27:28.629Z,60.72
2023-05-22T06:29:56.500Z,59.73
2023-05-22T06:32:23.476Z,56.69
2023-05-22T06:34:50.994Z,57.69
2023-05-22T06:37:17.806Z,58.95
2023-05-22T06:39:54.027Z,58.92
2023-05-22T06:42:21.238Z,56.28
2023-05-22T06:44:48.051Z,56.09
2023-05-22T06:47:15.085Z,57.76
2023-05-22T06:49:41.888Z,58.94
2023-05-22T06:52:08.608Z,59.01
2023-05-22T06:54:39.952Z,57.69
2023-05-22T06:57:07.016Z,57.80
2023-05-22T06:59:34.433Z,61.90
2023-05-22T07:02:01.587Z,59.11
2023-05-22T07:04:28.437Z,60.30
2023-05-22T07:06:55.257Z,64.56
2023-05-22T07:09:22.242Z,61.78
2023-05-22T07:11:49.296Z,63.95
2023-05-22T07:14:16.265Z,64.65
2023-05-22T07:16:43.104Z,64.74
2023-05-22T07:19:11.002Z,63.10
2023-05-22T07:21:38.410Z,62.65
2023-05-22T07:24:08.842Z,61.36
2023-05-22T07:26:36.616Z,59.66
2023-05-22T07:29:04.750Z,56.41
2023-05-22T07:31:32.237Z,58.32
2023-05-22T07:33:59.121Z,56.74
2023-05-22T07:36:26.169Z,56.10
2023-05-22T07:38:52.945Z,56.79
2023-05-22T07:41:19.883Z,56.34
2023-05-22T07:43:46.665Z,58.84
2023-05-22T07:46:13.530Z,57.59
2023-05-22T07:48:40.587Z,55.14
2023-05-22T07:51:07.989Z,54.16
2023-05-22T07:53:35.038Z,57.10
2023-05-22T07:56:05.152Z,53.96
2023-05-22T07:58:32.303Z,55.02
2023-05-22T08:00:59.286Z,55.44
2023-05-22T08:03:26.458Z,55.37
2023-05-22T08:05:53.486Z,55.92
2023-05-22T08:08:20.300Z,55.84
2023-05-22T08:11:03.033Z,56.41
2023-05-22T08:13:30.825Z,54.87
2023-05-22T08:16:00.672Z,55.62
2023-05-22T08:18:29.436Z,57.19
2023-05-22T08:20:56.754Z,57.83
2023-05-22T08:23:23.923Z,53.17
2023-05-22T08:25:50.720Z,55.76
2023-05-22T08:28:17.731Z,57.53
2023-05-22T08:30:44.540Z,55.24
2023-05-22T08:33:12.463Z,56.28
2023-05-22T08:35:39.472Z,53.73
2023-05-22T08:38:06.435Z,53.90
2023-05-22T08:40:42.553Z,51.28
2023-05-22T08:43:11.474Z,52.11
2023-05-22T08:45:42.702Z,52.85
2023-05-22T08:48:13.248Z,49.79
2023-05-22T08:50:43.539Z,52.22
2023-05-22T08:53:15.812Z,50.76
2023-05-22T08:55:42.936Z,51.53
2023-05-22T08:58:11.858Z,52.43
2023-05-22T09:00:38.865Z,52.05
2023-05-22T09:03:07.197Z,53.68
2023-05-22T09:05:34.510Z,52.27
2023-05-22T09:08:16.236Z,52.39
2023-05-22T09:10:46.574Z,51.12
2023-05-22T09:13:24.964Z,51.61
2023-05-22T09:15:52.299Z,52.60
2023-05-22T09:18:19.310Z,51.24
2023-05-22T09:20:46.195Z,51.87
2023-05-22T09:23:20.655Z,52.00
2023-05-22T09:25:47.971Z,49.41
2023-05-22T09:28:14.744Z,49.10
2023-05-22T09:30:42.851Z,48.13
2023-05-22T09:33:14.372Z,48.00
2023-05-22T09:35:42.296Z,48.40
2023-05-22T09:38:11.452Z,49.84
2023-05-22T09:40:40.642Z,51.63
2023-05-22T09:43:11.800Z,54.81
2023-05-22T09:45:39.669Z,52.87
2023-05-22T09:48:13.010Z,53.92
2023-05-22T09:50:40.418Z,55.00
2023-05-22T09:53:12.028Z,52.72
2023-05-22T09:55:39.717Z,51.90
2023-05-22T09:58:09.511Z,51.59
2023-05-22T10:00:37.717Z,53.52
2023-05-22T10:03:19.402Z,54.79
2023-05-22T10:05:51.812Z,53.15
2023-05-22T10:08:23.594Z,54.69
2023-05-22T10:10:55.205Z,53.32
2023-05-22T10:13:22.323Z,53.68
2023-05-22T10:15:50.164Z,54.00
2023-05-22T10:18:17.845Z,54.02
2023-05-22T10:20:47.219Z,54.87
2023-05-22T10:23:16.718Z,54.11
2023-05-22T10:25:44.783Z,52.23
2023-05-22T10:28:14.464Z,53.13
2023-05-22T10:30:42.645Z,54.53
2023-05-22T10:33:24.225Z,51.24
2023-05-22T10:35:55.569Z,50.24
2023-05-22T10:38:25.243Z,46.53
2023-05-22T10:40:52.760Z,45.97
2023-05-22T10:43:21.848Z,46.11
2023-05-22T10:45:48.737Z,47.26
2023-05-22T10:48:16.374Z,46.63
2023-05-22T10:50:53.072Z,46.73
2023-05-22T10:53:28.161Z,47.89
2023-05-22T10:56:02.651Z,46.46
2023-05-22T10:58:36.705Z,47.50
2023-05-22T11:01:11.914Z,44.84
2023-05-22T11:03:56.013Z,44.80
2023-05-22T11:06:39.578Z,43.83
2023-05-22T11:09:28.058Z,45.06
2023-05-22T11:12:17.405Z,44.84
2023-05-22T11:15:08.569Z,44.52
2023-05-22T11:17:41.717Z,44.83
2023-05-22T11:20:29.054Z,45.15
2023-05-22T11:23:04.159Z,45.50
2023-05-22T11:25:33.629Z,45.35
2023-05-22T11:28:03.546Z,44.89
2023-05-22T11:30:33.615Z,45.43
2023-05-22T11:33:01.987Z,45.61
2023-05-22T11:35:29.050Z,46.30
2023-05-22T11:37:56.589Z,46.69
2023-05-22T11:40:26.019Z,45.76
2023-05-22T11:42:53.934Z,43.62
2023-05-22T11:45:21.938Z,43.56
2023-05-22T11:47:49.258Z,43.81
2023-05-22T11:50:22.642Z,41.50
2023-05-22T11:52:57.047Z,41.30
2023-05-22T11:55:24.563Z,42.20
2023-05-22T11:57:51.431Z,42.99
2023-05-22T12:00:18.993Z,41.29
2023-05-22T12:02:49.786Z,42.47
2023-05-22T12:05:19.427Z,40.44
2023-05-22T12:07:46.468Z,38.85
2023-05-22T12:10:14.754Z,40.06
2023-05-22T12:12:43.495Z,38.09
2023-05-22T12:18:01.101Z,37.95
2023-05-22T12:20:31.601Z,39.07
2023-05-22T12:22:59.097Z,39.35
2023-05-22T12:25:34.331Z,40.64
2023-05-22T12:28:04.380Z,40.77
2023-05-22T12:30:40.937Z,41.80
2023-05-22T12:33:17.671Z,40.43
2023-05-22T12:35:44.633Z,41.94
2023-05-22T12:38:11.456Z,41.59
2023-05-22T12:40:38.545Z,41.50
2023-05-22T12:43:05.843Z,43.76
2023-05-22T12:45:32.600Z,41.93
2023-05-22T12:47:59.515Z,42.38
2023-05-22T12:50:29.442Z,42.14
2023-05-22T12:52:56.258Z,42.95
2023-05-22T12:55:23.265Z,43.47
2023-05-22T12:57:50.268Z,46.74
2023-05-22T13:00:35.553Z,48.33
2023-05-22T13:03:03.559Z,48.99
2023-05-22T13:05:30.672Z,48.39
2023-05-22T13:07:57.652Z,48.30
2023-05-22T13:10:24.917Z,47.51
2023-05-22T13:12:51.786Z,49.05
2023-05-22T13:15:18.945Z,48.33
2023-05-22T13:17:46.203Z,49.03
2023-05-22T13:20:13.731Z,48.97
2023-05-22T13:22:41.889Z,47.89
2023-05-22T13:25:09.253Z,48.13
2023-05-22T13:27:36.852Z,46.60
2023-05-22T13:30:06.483Z,46.22
2023-05-22T13:32:34.218Z,45.08
2023-05-22T13:35:01.329Z,47.10
2023-05-22T13:37:28.223Z,46.09
2023-05-22T13:39:55.354Z,43.77
2023-05-22T13:42:22.195Z,43.75
2023-05-22T13:44:51.574Z,43.25
2023-05-22T13:47:18.820Z,43.10
2023-05-22T13:49:46.169Z,43.37
2023-05-22T13:52:12.989Z,42.13
2023-05-22T13:54:40.616Z,42.69
2023-05-22T13:57:07.532Z,42.41
2023-05-22T13:59:34.501Z,42.18
2023-05-22T14:02:02.034Z,41.94
2023-05-22T14:04:28.949Z,42.87
2023-05-22T14:06:55.796Z,44.61
2023-05-22T14:09:23.442Z,45.60
2023-05-22T14:11:50.328Z,44.34
2023-05-22T14:14:23.789Z,45.47
2023-05-22T14:16:52.000Z,46.26
2023-05-22T14:19:37.822Z,46.57
2023-05-22T14:22:05.528Z,46.73
2023-05-22T14:24:32.783Z,46.09
2023-05-22T14:26:59.656Z,44.69
2023-05-22T14:29:26.681Z,45.18
2023-05-22T14:32:02.026Z,44.61
2023-05-22T14:34:29.258Z,43.74
2023-05-22T14:36:58.848Z,44.13
2023-05-22T14:39:26.281Z,45.16
2023-05-22T14:41:54.006Z,44.42
2023-05-22T14:44:22.840Z,44.81
2023-05-22T14:46:51.155Z,45.21
2023-05-22T14:49:18.205Z,46.18
2023-05-22T14:51:47.813Z,46.29
2023-05-22T14:54:21.925Z,46.64
2023-05-22T14:56:48.696Z,46.28
2023-05-22T14:59:24.366Z,47.06
2023-05-22T15:01:52.318Z,47.03
2023-05-22T15:04:19.595Z,45.27
2023-05-22T15:06:46.836Z,44.89
2023-05-22T15:09:13.853Z,44.07
2023-05-22T15:14:37.288Z,42.96
2023-05-22T15:17:10.890Z,42.78
2023-05-22T15:19:37.916Z,43.23
2023-05-22T15:22:18.294Z,42.60
2023-05-22T15:24:48.398Z,43.00
2023-05-22T15:27:15.224Z,43.15
2023-05-22T15:29:42.198Z,44.31
2023-05-22T15:32:09.709Z,45.46
2023-05-22T15:34:36.586Z,45.70
2023-05-22T15:37:03.407Z,46.38
2023-05-22T15:39:30.574Z,46.28
2023-05-22T15:42:05.902Z,47.06
2023-05-22T15:44:33.906Z,47.54
2023-05-22T15:47:00.729Z,47.77
2023-05-22T15:49:30.942Z,47.55
2023-05-22T15:51:58.629Z,47.68
2023-05-22T15:54:25.427Z,47.73
2023-05-22T15:56:52.716Z,48.38
2023-05-22T15:59:19.728Z,48.12
2023-05-22T16:01:46.745Z,48.19
2023-05-22T16:04:13.634Z,48.99
2023-05-22T16:06:40.696Z,48.17
2023-05-22T16:09:08.138Z,48.47
2023-05-22T16:11:35.028Z,50.00
2023-05-22T16:14:02.038Z,50.79
2023-05-22T16:16:28.965Z,51.84
2023-05-22T16:18:55.956Z,52.47
2023-05-22T16:21:22.880Z,52.15
2023-05-22T16:23:49.933Z,52.12
2023-05-22T16:26:17.026Z,51.84
2023-05-22T16:28:44.301Z,48.93
2023-05-22T16:31:13.058Z,47.27
2023-05-22T16:33:39.916Z,47.55
2023-05-22T16:36:07.296Z,46.96
2023-05-22T16:38:34.425Z,47.10
2023-05-22T16:41:01.455Z,48.45
2023-05-22T16:43:28.423Z,48.18
2023-05-22T16:45:55.143Z,48.87
2023-05-22T16:48:21.986Z,47.68
2023-05-22T16:50:48.937Z,47.48
2023-05-22T16:53:18.709Z,47.76
2023-05-22T16:55:45.761Z,48.10
2023-05-22T16:58:12.835Z,47.74
2023-05-22T17:00:40.518Z,47.90
2023-05-22T17:03:09.241Z,48.41
2023-05-22T17:05:36.931Z,47.78
2023-05-22T17:08:03.891Z,47.92
2023-05-22T17:10:30.823Z,48.65
2023-05-22T17:12:57.708Z,47.84
2023-05-22T17:15:24.495Z,48.66
2023-05-22T17:17:51.384Z,48.88
2023-05-22T17:20:19.022Z,48.99
2023-05-22T17:22:45.747Z,49.03
2023-05-22T17:25:13.754Z,48.86
2023-05-22T17:27:40.721Z,49.26
2023-05-22T17:30:08.658Z,49.53
2023-05-22T17:32:36.254Z,49.11
2023-05-22T17:35:03.379Z,49.14
2023-05-22T17:37:30.321Z,49.68
2023-05-22T17:39:57.346Z,50.20
2023-05-22T17:42:24.477Z,50.40
2023-05-22T17:44:51.366Z,50.14
2023-05-22T17:47:18.549Z,49.79
2023-05-22T17:49:45.569Z,52.42
2023-05-22T17:52:13.256Z,53.30
2023-05-22T17:54:40.096Z,53.78
2023-05-22T17:57:06.832Z,56.30
2023-05-22T17:59:33.812Z,58.25
2023-05-22T18:02:00.663Z,60.44
2023-05-22T18:04:27.457Z,62.20
2023-05-22T18:06:54.090Z,62.56
2023-05-22T18:09:20.964Z,62.84
2023-05-22T18:11:50.462Z,64.32
2023-05-22T18:14:17.284Z,65.26
2023-05-22T18:16:44.176Z,65.72
2023-05-22T18:19:10.988Z,66.69
2023-05-22T18:21:37.758Z,66.98
2023-05-22T18:24:04.751Z,67.31
2023-05-22T18:26:35.061Z,67.96
2023-05-22T18:29:01.949Z,67.15
2023-05-22T18:31:29.337Z,65.37
2023-05-22T18:33:56.178Z,66.80
2023-05-22T18:36:23.201Z,68.08
2023-05-22T18:38:50.234Z,68.81
2023-05-22T18:41:16.998Z,69.10
2023-05-22T18:43:44.017Z,68.37
2023-05-22T18:46:10.914Z,68.44
2023-05-22T18:48:37.799Z,68.00
2023-05-22T18:51:04.828Z,67.09
2023-05-22T18:53:31.881Z,66.31
2023-05-22T18:55:58.700Z,67.59
2023-05-22T18:58:25.862Z,65.92
2023-05-22T19:00:55.552Z,66.67
2023-05-22T19:03:22.430Z,65.67
2023-05-22T19:05:49.319Z,66.08
2023-05-22T19:08:16.141Z,65.20
2023-05-22T19:10:43.050Z,65.44
2023-05-22T19:13:10.236Z,64.76
2023-05-22T19:15:38.498Z,65.60
2023-05-22T19:18:05.643Z,65.81
2023-05-22T19:20:32.566Z,64.69
2023-05-22T19:22:59.403Z,64.45
2023-05-22T19:25:28.770Z,63.91
2023-05-22T19:27:56.821Z,67.29
2023-05-22T19:30:23.694Z,67.49
2023-05-22T19:32:50.595Z,71.10
2023-05-22T19:35:17.858Z,70.52
2023-05-22T19:37:44.727Z,72.12
2023-05-22T19:40:11.636Z,73.36
2023-05-22T19:42:41.212Z,73.92
2023-05-22T19:45:08.734Z,73.45
2023-05-22T19:47:35.730Z,76.43
2023-05-22T19:50:02.732Z,76.73
2023-05-22T19:52:29.625Z,75.76
2023-05-22T19:54:56.423Z,74.17
2023-05-22T19:57:23.220Z,74.36
2023-05-22T19:59:51.231Z,76.67
2023-05-22T20:02:18.139Z,76.99
2023-05-22T20:04:48.508Z,78.83
2023-05-22T20:07:15.805Z,79.56
2023-05-22T20:09:42.699Z,81.06
2023-05-22T20:12:10.624Z,82.65
2023-05-22T20:14:37.810Z,86.57
2023-05-22T20:17:04.847Z,86.70
2023-05-22T20:19:34.724Z,86.13
2023-05-22T20:22:02.398Z,84.50
2023-05-22T20:24:29.772Z,86.52
2023-05-22T20:26:57.982Z,86.79
2023-05-22T20:29:24.816Z,85.69
2023-05-22T20:31:54.700Z,86.46
2023-05-22T20:34:22.524Z,86.74
2023-05-22T20:36:49.501Z,85.42
2023-05-22T20:39:18.269Z,83.17
2023-05-22T20:41:46.467Z,81.62
2023-05-22T20:44:13.705Z,82.19
2023-05-22T20:46:40.688Z,81.12
2023-05-22T20:49:07.625Z,80.80
2023-05-22T20:51:34.520Z,83.10
2023-05-22T20:54:01.980Z,82.09
2023-05-22T20:56:30.192Z,82.46
2023-05-22T20:58:57.508Z,83.93
2023-05-22T21:01:25.077Z,84.92
2023-05-22T21:03:53.522Z,85.90
2023-05-22T21:06:20.821Z,84.50
2023-05-22T21:08:48.180Z,83.71
2023-05-22T21:11:15.931Z,83.18
2023-05-22T21:13:42.823Z,83.77
2023-05-22T21:16:10.248Z,83.47
2023-05-22T21:18:37.053Z,85.55
2023-05-22T21:21:03.935Z,84.30
2023-05-22T21:23:30.923Z,81.78
2023-05-22T21:25:57.967Z,83.96
2023-05-22T21:28:25.046Z,83.99
2023-05-22T21:30:52.141Z,84.20
2023-05-22T21:33:18.968Z,85.50
2023-05-22T21:35:46.238Z,85.84
2023-05-22T21:38:13.184Z,84.03
2023-05-22T21:40:42.230Z,84.85
2023-05-22T21:43:09.672Z,84.57
2023-05-22T21:45:37.402Z,83.38
2023-05-22T21:48:04.775Z,83.57
2023-05-22T21:50:31.916Z,84.43
2023-05-22T21:52:58.772Z,84.62
2023-05-22T21:55:25.659Z,87.08
2023-05-22T21:57:53.078Z,85.73
2023-05-22T22:00:19.996Z,84.67
2023-05-22T22:02:46.934Z,82.61
2023-05-22T22:05:14.104Z,81.52
2023-05-22T22:07:41.140Z,81.10
2023-05-22T22:10:08.534Z,78.88
2023-05-22T22:12:35.356Z,78.46
2023-05-22T22:15:02.594Z,76.66
2023-05-22T22:17:30.325Z,76.52
2023-05-22T22:19:57.508Z,77.31
2023-05-22T22:22:25.097Z,77.96
2023-05-22T22:24:52.185Z,76.62
2023-05-22T22:27:20.073Z,79.01
2023-05-22T22:29:48.189Z,77.87
2023-05-22T22:32:15.294Z,77.64
2023-05-22T22:34:43.445Z,78.47
2023-05-22T22:37:10.427Z,79.07
2023-05-22T22:39:37.437Z,78.90
2023-05-22T22:42:05.315Z,78.93
2023-05-22T22:44:32.505Z,78.04
2023-05-22T22:47:01.982Z,78.87
2023-05-22T22:49:28.972Z,81.90
2023-05-22T22:51:56.604Z,83.00
2023-05-22T22:54:24.172Z,80.36
2023-05-22T22:56:51.750Z,81.05
2023-05-22T22:59:18.726Z,80.47
2023-05-22T23:01:45.721Z,81.64
2023-05-22T23:04:14.085Z,83.89
2023-05-22T23:06:44.145Z,81.14
2023-05-22T23:09:11.384Z,80.68
2023-05-22T23:11:39.124Z,80.80
2023-05-22T23:14:08.555Z,81.85
2023-05-22T23:16:41.320Z,81.12
2023-05-22T23:19:09.295Z,80.85
2023-05-22T23:21:36.701Z,81.55
2023-05-22T23:24:04.932Z,81.93
2023-05-22T23:26:32.722Z,81.93
2023-05-22T23:29:00.747Z,83.03
2023-05-22T23:31:30.847Z,84.64
2023-05-22T23:33:58.643Z,85.16
2023-05-22T23:36:25.997Z,83.98
2023-05-22T23:38:53.053Z,84.55
2023-05-22T23:41:19.990Z,84.94
2023-05-22T23:43:47.657Z,85.15
2023-05-22T23:46:15.202Z,86.94
2023-05-22T23:48:42.712Z,88.22
2023-05-22T23:51:14.506Z,85.62
2023-05-22T23:53:42.606Z,85.42
2023-05-22T23:56:10.375Z,85.68
2023-05-22T23:58:38.269Z,88.19
